createdAt,value
2023-04-12T01:10:54.603Z,97739.44
2023-04-12T01:45:15.561Z,97702.13
2023-04-12T01:47:44.938Z,97689.28
2023-04-12T01:50:21.319Z,97690.16
2023-04-12T01:53:12.600Z,97690.16
2023-04-12T02:03:48.453Z,97684.13
2023-04-12T02:10:38.501Z,97669.59
2023-04-12T02:14:07.272Z,97664.59
2023-04-12T02:28:12.130Z,97657.66
2023-04-12T02:30:38.909Z,97647.56
2023-04-12T02:33:06.152Z,97637.31
2023-04-12T02:35:32.867Z,97636.38
2023-04-12T02:38:03.895Z,97634.69
2023-04-12T02:40:30.568Z,97624.56
2023-04-12T02:42:56.975Z,97622.91
2023-04-12T02:45:23.555Z,97623.09
2023-04-12T02:47:50.061Z,97615.50
2023-04-12T02:50:16.535Z,97612.91
2023-04-12T02:52:42.927Z,97613.78
2023-04-12T02:55:09.657Z,97611.41
2023-04-12T02:57:36.031Z,97610.56
2023-04-12T03:00:07.455Z,97614.09
2023-04-12T03:02:34.029Z,97613.09
2023-04-12T03:05:00.474Z,97608.91
2023-04-12T03:07:27.860Z,97605.47
2023-04-12T03:09:54.355Z,97596.09
2023-04-12T03:12:20.812Z,97594.44
2023-04-12T03:14:47.220Z,97591.94
2023-04-12T03:17:13.775Z,97597.09
2023-04-12T03:19:40.209Z,97595.22
2023-04-12T03:22:06.687Z,97596.09
2023-04-12T03:24:34.707Z,97591.03
2023-04-12T03:27:02.791Z,97592.69
2023-04-12T03:29:30.580Z,97587.59
2023-04-12T03:31:59.991Z,97580.00
2023-04-12T03:34:33.034Z,97571.53
2023-04-12T03:37:01.604Z,97574.16
2023-04-12T03:39:28.639Z,97567.31
2023-04-12T03:41:55.309Z,97570.53
2023-04-12T03:44:22.516Z,97561.94
2023-04-12T03:46:49.241Z,97561.06
2023-04-12T03:49:16.626Z,97567.00
2023-04-12T03:51:43.645Z,97560.31
2023-04-12T03:54:11.508Z,97566.34
2023-04-12T03:56:38.742Z,97560.44
2023-04-12T03:59:07.709Z,97561.34
2023-04-12T04:01:35.517Z,97551.22
2023-04-12T04:04:03.464Z,97559.72
2023-04-12T04:06:30.324Z,97558.03
2023-04-12T04:08:59.457Z,97557.13
2023-04-12T04:11:27.355Z,97550.31
2023-04-12T04:13:53.752Z,97555.41
2023-04-12T04:16:20.341Z,97550.44
2023-04-12T04:18:46.830Z,97550.44
2023-04-12T04:21:17.008Z,97548.78
2023-04-12T04:23:47.887Z,97542.78
2023-04-12T04:26:15.697Z,97543.56
2023-04-12T04:28:45.103Z,97531.44
2023-04-12T04:31:12.707Z,97530.72
2023-04-12T04:33:40.178Z,97528.97
2023-04-12T04:36:09.321Z,97524.69
2023-04-12T04:38:40.336Z,97530.72
2023-04-12T04:41:07.193Z,97519.63
2023-04-12T04:43:34.195Z,97517.94
2023-04-12T04:46:01.102Z,97520.31
2023-04-12T04:48:29.949Z,97522.84
2023-04-12T04:50:56.603Z,97528.84
2023-04-12T04:53:23.223Z,97523.78
2023-04-12T04:55:49.668Z,97524.69
2023-04-12T04:58:18.642Z,97528.88
2023-04-12T05:00:45.056Z,97520.44
2023-04-12T05:03:14.543Z,97516.03
2023-04-12T05:05:41.049Z,97525.19
2023-04-12T05:08:25.470Z,97520.16
2023-04-12T05:10:53.056Z,97519.22
2023-04-12T05:13:19.807Z,97513.25
2023-04-12T05:15:46.214Z,97502.03
2023-04-12T05:18:13.946Z,97490.03
2023-04-12T05:20:40.737Z,97494.22
2023-04-12T05:23:07.197Z,97500.06
2023-04-12T05:25:34.236Z,97494.94
2023-04-12T05:28:01.133Z,97487.38
2023-04-12T05:30:27.544Z,97489.00
2023-04-12T05:32:53.974Z,97491.56
2023-04-12T05:35:21.240Z,97482.09
2023-04-12T05:37:47.687Z,97486.97
2023-04-12T05:40:14.150Z,97487.75
2023-04-12T05:42:40.581Z,97490.13
2023-04-12T05:45:07.401Z,97486.84
2023-04-12T05:47:33.849Z,97480.09
2023-04-12T05:50:00.347Z,97479.19
2023-04-12T05:52:26.881Z,97468.78
2023-04-12T05:54:53.646Z,97471.22
2023-04-12T05:57:20.172Z,97460.97
2023-04-12T05:59:46.606Z,97462.41
2023-04-12T06:02:13.078Z,97464.88
2023-04-12T06:04:50.273Z,97458.88
2023-04-12T06:07:19.256Z,97445.84
2023-04-12T06:09:46.115Z,97438.81
2023-04-12T06:12:12.551Z,97437.78
2023-04-12T06:14:38.971Z,97428.38
2023-04-12T06:17:05.773Z,97434.41
2023-04-12T06:19:32.224Z,97427.63
2023-04-12T06:21:58.682Z,97423.88
2023-04-12T06:24:25.101Z,97418.00
2023-04-12T06:26:51.528Z,97417.94
2023-04-12T06:29:17.905Z,97420.25
2023-04-12T06:31:44.411Z,97424.00
2023-04-12T06:34:10.944Z,97416.25
2023-04-12T06:36:38.661Z,97420.66
2023-04-12T06:39:05.132Z,97412.81
2023-04-12T06:41:31.508Z,97406.13
2023-04-12T06:43:57.969Z,97409.44
2023-04-12T06:46:28.389Z,97400.59
2023-04-12T06:48:55.568Z,97401.31
2023-04-12T06:51:22.049Z,97396.38
2023-04-12T06:53:48.505Z,97396.34
2023-04-12T06:56:17.933Z,97395.56
2023-04-12T06:58:45.230Z,97385.88
2023-04-12T07:01:12.871Z,97387.25
2023-04-12T07:03:39.666Z,97378.31
2023-04-12T07:06:21.419Z,97374.06
2023-04-12T07:08:50.728Z,97368.91
2023-04-12T07:11:21.540Z,97369.94
2023-04-12T07:13:49.232Z,97362.22
2023-04-12T07:16:15.919Z,97361.13
2023-04-12T07:18:42.540Z,97364.16
2023-04-12T07:21:08.945Z,97359.94
2023-04-12T07:23:35.492Z,97360.03
2023-04-12T07:26:02.401Z,97352.34
2023-04-12T07:28:28.943Z,97347.28
2023-04-12T07:30:55.481Z,97352.56
2023-04-12T07:33:22.274Z,97343.56
2023-04-12T07:35:48.824Z,97340.84
2023-04-12T07:38:16.795Z,97331.84
2023-04-12T07:40:47.696Z,97333.34
2023-04-12T07:43:16.667Z,97324.41
2023-04-12T07:45:43.079Z,97334.13
2023-04-12T07:48:09.466Z,97343.31
2023-04-12T07:50:35.875Z,97328.81
2023-04-12T07:53:24.076Z,97323.97
2023-04-12T07:55:51.113Z,97320.00
2023-04-12T07:58:22.230Z,97317.41
2023-04-12T08:00:50.685Z,97305.81
2023-04-12T08:03:18.446Z,97304.69
2023-04-12T08:05:45.520Z,97300.69
2023-04-12T08:08:12.146Z,97300.72
2023-04-12T08:10:40.325Z,97292.91
2023-04-12T08:13:07.519Z,97285.13
2023-04-12T08:15:34.372Z,97283.06
2023-04-12T08:18:02.483Z,97287.66
2023-04-12T08:20:29.152Z,97284.59
2023-04-12T08:22:55.760Z,97283.09
2023-04-12T08:25:22.473Z,97276.41
2023-04-12T08:27:50.341Z,97274.47
2023-04-12T08:30:31.184Z,97275.28
2023-04-12T08:32:59.934Z,97274.78
2023-04-12T08:35:49.283Z,97270.81
2023-04-12T08:41:05.197Z,97265.44
2023-04-12T08:43:35.740Z,97258.91
2023-04-12T08:46:05.262Z,97258.78
2023-04-12T08:51:49.582Z,97258.91
2023-04-12T08:54:22.736Z,97258.56
2023-04-12T08:56:49.481Z,97249.84
2023-04-12T08:59:28.143Z,97245.00
2023-04-12T09:01:58.621Z,97242.31
2023-04-12T09:04:35.256Z,97230.59
2023-04-12T09:07:03.083Z,97236.50
2023-04-12T09:09:47.011Z,97216.13
2023-04-12T09:12:24.502Z,97216.00
2023-04-12T09:15:21.434Z,97208.63
2023-04-12T09:20:30.187Z,97195.75
2023-04-12T09:22:56.930Z,97190.91
2023-04-12T09:25:50.374Z,97183.84
2023-04-12T09:28:34.366Z,97179.97
2023-04-12T09:31:05.976Z,97179.06
2023-04-12T09:33:37.715Z,97165.94
2023-04-12T09:36:14.628Z,97161.84
2023-04-12T09:38:43.137Z,97148.41
2023-04-12T09:41:26.947Z,97141.00
2023-04-12T09:43:56.871Z,97141.84
2023-04-12T09:46:24.055Z,97149.47
2023-04-12T09:49:02.170Z,97141.00
2023-04-12T09:51:32.974Z,97136.94
2023-04-12T09:54:05.728Z,97138.50
2023-04-12T09:56:35.665Z,97139.72
2023-04-12T09:59:04.851Z,97138.97
2023-04-12T10:01:54.896Z,97124.88
2023-04-12T10:04:21.870Z,97118.53
2023-04-12T10:06:51.082Z,97114.50
2023-04-12T10:09:20.906Z,97115.19
2023-04-12T10:11:51.632Z,97109.13
2023-04-12T10:14:24.554Z,97102.47
2023-04-12T10:16:56.373Z,97094.84
2023-04-12T10:19:26.607Z,97092.59
2023-04-12T10:21:53.582Z,97091.88
2023-04-12T10:24:25.041Z,97086.22
2023-04-12T10:26:53.967Z,97075.22
2023-04-12T10:29:31.984Z,97080.66
2023-04-12T10:32:18.790Z,97075.97
2023-04-12T10:34:49.993Z,97075.91
2023-04-12T10:37:16.589Z,97069.19
2023-04-12T10:39:52.284Z,97067.03
2023-04-12T10:42:28.901Z,97056.06
2023-04-12T10:45:01.223Z,97052.03
2023-04-12T10:47:50.027Z,97042.81
2023-04-12T10:50:21.542Z,97036.81
2023-04-12T10:53:13.074Z,97033.09
2023-04-12T10:55:40.001Z,97031.78
2023-04-12T10:58:06.519Z,97038.63
2023-04-12T11:01:08.902Z,97027.69
2023-04-12T11:03:35.960Z,97035.88
2023-04-12T11:06:13.101Z,97019.50
2023-04-12T11:08:55.778Z,97016.59
2023-04-12T11:11:22.967Z,97016.06
2023-04-12T11:13:54.985Z,97020.31
2023-04-12T11:16:27.188Z,97017.38
2023-04-12T11:19:19.702Z,97009.69
2023-04-12T11:21:54.989Z,97006.63
2023-04-12T11:24:21.904Z,96995.69
2023-04-12T11:26:50.542Z,97017.69
2023-04-12T11:29:23.008Z,97019.78
2023-04-12T11:31:54.820Z,97027.19
2023-04-12T11:34:22.168Z,97016.50
2023-04-12T11:36:53.535Z,97011.19
2023-04-12T11:39:23.973Z,97013.75
2023-04-12T11:41:50.750Z,96997.63
2023-04-12T11:47:07.189Z,96991.38
2023-04-12T11:49:43.043Z,96988.63
2023-04-12T11:52:09.684Z,96981.75
2023-04-12T11:54:36.312Z,96980.03
2023-04-12T11:57:05.061Z,96974.69
2023-04-12T11:59:37.449Z,96965.72
2023-04-12T12:02:13.763Z,96954.97
2023-04-12T12:04:52.904Z,96957.97
2023-04-12T12:07:21.846Z,96956.69
2023-04-12T12:09:50.109Z,96951.53
2023-04-12T12:12:16.996Z,96954.19
2023-04-12T12:14:47.250Z,96951.75
2023-04-12T12:17:15.850Z,96949.88
2023-04-12T12:19:43.982Z,96948.94
2023-04-12T12:22:21.833Z,96945.09
2023-04-12T12:24:55.941Z,96945.28
2023-04-12T12:27:24.818Z,96941.81
2023-04-12T12:29:55.118Z,96940.00
2023-04-12T12:32:25.920Z,96934.81
2023-04-12T12:34:56.761Z,96924.94
2023-04-12T12:37:25.514Z,96926.53
2023-04-12T12:40:13.633Z,96931.03
2023-04-12T12:42:55.138Z,96914.13
2023-04-12T12:45:24.034Z,96907.31
2023-04-12T12:47:59.549Z,96903.06
2023-04-12T12:50:29.724Z,96900.94
2023-04-12T12:52:56.750Z,96888.50
2023-04-12T12:55:24.506Z,96892.25
2023-04-12T12:58:06.718Z,96894.88
2023-04-12T13:00:34.383Z,96888.47
2023-04-12T13:03:04.575Z,96892.91
2023-04-12T13:05:31.440Z,96891.69
2023-04-12T13:07:57.858Z,96884.69
2023-04-12T13:10:26.396Z,96893.13
2023-04-12T13:12:52.762Z,96887.41
2023-04-12T13:15:23.530Z,96877.97
2023-04-12T13:17:54.141Z,96874.34
2023-04-12T13:20:21.296Z,96873.50
2023-04-12T13:22:50.253Z,96867.75
2023-04-12T13:25:16.779Z,96864.13
2023-04-12T13:27:43.561Z,96855.66
2023-04-12T13:30:11.551Z,96873.22
2023-04-12T13:32:38.135Z,96871.38
2023-04-12T13:35:05.413Z,96862.66
2023-04-12T13:37:34.415Z,96858.56
2023-04-12T13:40:00.908Z,96853.41
2023-04-12T13:42:27.414Z,96846.28
2023-04-12T13:44:54.270Z,96840.44
2023-04-12T13:47:21.006Z,96846.50
2023-04-12T13:49:50.531Z,96852.31
2023-04-12T13:52:17.072Z,96854.06
2023-04-12T13:54:43.546Z,96848.69
2023-04-12T13:57:10.441Z,96849.69
2023-04-12T13:59:36.905Z,96839.00
2023-04-12T14:02:03.521Z,96838.03
2023-04-12T14:04:31.999Z,96824.75
2023-04-12T14:06:59.595Z,96816.66
2023-04-12T14:09:30.495Z,96827.03
2023-04-12T14:11:59.220Z,96813.25
2023-04-12T14:14:27.387Z,96823.88
2023-04-12T14:16:57.370Z,96818.13
2023-04-12T14:19:25.160Z,96807.97
2023-04-12T14:21:51.883Z,96809.53
2023-04-12T14:24:19.263Z,96810.06
2023-04-12T14:26:45.846Z,96813.69
2023-04-12T14:29:13.539Z,96811.66
2023-04-12T14:31:40.207Z,96797.75
2023-04-12T14:34:08.733Z,96786.78
2023-04-12T14:36:35.412Z,96789.63
2023-04-12T14:39:03.873Z,96793.91
2023-04-12T14:41:30.671Z,96783.38
2023-04-12T14:43:59.771Z,96784.22
2023-04-12T14:46:28.160Z,96785.38
2023-04-12T14:48:55.552Z,96783.22
2023-04-12T14:51:22.415Z,96785.19
2023-04-12T14:53:55.452Z,96779.06
2023-04-12T14:56:25.324Z,96767.59
2023-04-12T14:58:54.194Z,96768.84
2023-04-12T15:01:23.451Z,96765.19
2023-04-12T15:03:52.354Z,96756.44
2023-04-12T15:06:20.916Z,96760.34
2023-04-12T15:08:49.501Z,96761.41
2023-04-12T15:11:19.166Z,96763.34
2023-04-12T15:13:45.781Z,96763.72
2023-04-12T15:16:15.182Z,96759.44
2023-04-12T15:18:42.002Z,96754.78
2023-04-12T15:21:10.394Z,96747.84
2023-04-12T15:23:38.038Z,96743.38
2023-04-12T15:26:06.726Z,96741.06
2023-04-12T15:28:33.427Z,96740.84
2023-04-12T15:31:00.966Z,96736.09
2023-04-12T15:33:27.968Z,96732.28
2023-04-12T15:35:57.842Z,96733.00
2023-04-12T15:38:24.986Z,96723.13
2023-04-12T15:40:55.693Z,96723.25
2023-04-12T15:43:23.240Z,96715.88
2023-04-12T15:45:53.170Z,96720.88
2023-04-12T15:48:21.039Z,96714.75
2023-04-12T15:50:48.787Z,96719.47
2023-04-12T15:53:19.654Z,96712.41
2023-04-12T15:55:47.188Z,96716.66
2023-04-12T15:58:14.689Z,96706.03
2023-04-12T16:00:41.326Z,96709.16
2023-04-12T16:03:09.129Z,96710.44
2023-04-12T16:05:36.219Z,96705.53
2023-04-12T16:08:03.147Z,96706.03
2023-04-12T16:10:30.392Z,96700.19
2023-04-12T16:12:57.290Z,96697.88
2023-04-12T16:15:24.020Z,96695.03
2023-04-12T16:17:53.257Z,96696.22
2023-04-12T16:20:23.253Z,96693.41
2023-04-12T16:22:55.257Z,96689.88
2023-04-12T16:25:28.014Z,96690.53
2023-04-12T16:27:55.498Z,96689.97
2023-04-12T16:30:23.008Z,96690.97
2023-04-12T16:32:51.198Z,96682.75
2023-04-12T16:35:21.345Z,96676.41
2023-04-12T16:37:48.034Z,96678.22
2023-04-12T16:40:14.682Z,96694.34
2023-04-12T16:42:42.236Z,96700.28
2023-04-12T16:45:10.122Z,96708.97
2023-04-12T16:47:37.942Z,96682.63
2023-04-12T16:50:08.246Z,96686.31
2023-04-12T16:52:36.038Z,96679.19
2023-04-12T16:55:02.913Z,96688.28
2023-04-12T16:57:29.740Z,96692.97
2023-04-12T16:59:57.173Z,96697.22
2023-04-12T17:02:24.747Z,96697.38
2023-04-12T17:04:54.160Z,96713.19
2023-04-12T17:07:20.628Z,96788.94
2023-04-12T17:09:47.120Z,96775.06
2023-04-12T17:12:13.713Z,96768.94
2023-04-12T17:14:40.203Z,96729.03
2023-04-12T17:17:07.033Z,96719.94
2023-04-12T17:19:33.817Z,96743.00
2023-04-12T17:22:00.561Z,96757.31
2023-04-12T17:24:27.091Z,96759.97
2023-04-12T17:26:53.928Z,96751.50
2023-04-12T17:29:20.877Z,96751.06
2023-04-12T17:31:50.682Z,96742.31
2023-04-12T17:34:19.879Z,96741.31
2023-04-12T17:36:58.888Z,96753.84
2023-04-12T17:39:25.543Z,96754.47
2023-04-12T17:41:52.084Z,96736.50
2023-04-12T17:44:20.985Z,96728.22
2023-04-12T17:46:54.667Z,96721.88
2023-04-12T17:49:22.344Z,96740.69
2023-04-12T17:51:48.970Z,96761.75
2023-04-12T17:54:18.778Z,96769.63
2023-04-12T17:56:50.113Z,96772.09
2023-04-12T17:59:42.197Z,96769.75
2023-04-12T18:02:12.301Z,96775.13
2023-04-12T18:04:51.358Z,96770.50
2023-04-12T18:07:20.999Z,96771.16
2023-04-12T18:09:53.777Z,96776.22
2023-04-12T18:12:32.291Z,96774.84
2023-04-12T18:15:18.213Z,96788.22
2023-04-12T18:17:47.080Z,96778.97
2023-04-12T18:20:18.847Z,96775.78
2023-04-12T18:27:19.646Z,96793.75
2023-04-12T18:38:44.982Z,96819.22
2023-04-12T18:41:21.273Z,96830.00
2023-04-12T18:43:51.155Z,96829.94
2023-04-12T19:04:06.844Z,96877.03
2023-04-12T19:06:34.784Z,96876.91
2023-04-12T19:09:06.543Z,96889.94
2023-04-12T19:11:35.533Z,96889.19
2023-04-12T19:14:06.949Z,96888.66
2023-04-12T19:16:35.622Z,96892.84
2023-04-12T19:19:03.780Z,96880.97
2023-04-12T19:21:39.313Z,96872.56
2023-04-12T19:24:19.068Z,96886.44
2023-04-12T19:27:07.862Z,96896.03
2023-04-12T19:30:09.677Z,96894.38
2023-04-12T19:32:46.101Z,96895.31
2023-04-12T19:35:23.971Z,96892.69
2023-04-12T19:38:01.915Z,96897.00
2023-04-12T19:40:36.158Z,96887.69
2023-04-12T19:43:03.054Z,96890.75
2023-04-12T19:45:30.320Z,96875.44
2023-04-12T19:47:57.028Z,96860.03
2023-04-12T19:50:23.596Z,96872.69
2023-04-12T19:52:50.166Z,96895.97
2023-04-12T19:55:16.693Z,96890.75
2023-04-12T19:57:43.371Z,96898.50
2023-04-12T20:00:19.696Z,96889.00
2023-04-12T20:02:48.105Z,96872.63
2023-04-12T20:05:16.050Z,96875.41
2023-04-12T20:07:44.180Z,96873.50
2023-04-12T20:10:11.466Z,96870.28
2023-04-12T20:12:41.745Z,96866.31
2023-04-12T20:15:14.470Z,96872.34
2023-04-12T20:17:44.810Z,96875.78
2023-04-12T20:20:14.076Z,96878.44
2023-04-12T20:22:45.443Z,96886.16
2023-04-12T20:25:16.430Z,96884.72
2023-04-12T20:27:44.954Z,96890.81
2023-04-12T20:30:16.809Z,96900.34
2023-04-12T20:32:43.489Z,96893.56
2023-04-12T20:35:10.509Z,96896.38
2023-04-12T20:37:59.184Z,96901.50
2023-04-12T20:40:32.934Z,96905.25
2023-04-12T20:43:16.386Z,96909.72
2023-04-12T20:46:21.683Z,96902.91
2023-04-12T20:49:19.332Z,96908.63
2023-04-12T20:51:47.450Z,96903.81
2023-04-12T20:54:14.021Z,96907.53
2023-04-12T20:56:40.499Z,96908.59
2023-04-12T20:59:07.878Z,96900.19
2023-04-12T21:01:37.463Z,96896.31
2023-04-12T21:04:06.286Z,96914.31
2023-04-12T21:06:34.544Z,96903.38
2023-04-12T21:09:01.837Z,96897.56
2023-04-12T21:11:28.392Z,96909.56
2023-04-12T21:13:54.900Z,96909.75
2023-04-12T21:16:21.480Z,96920.88
2023-04-12T21:18:47.975Z,96915.81
2023-04-12T21:21:15.132Z,96912.50
2023-04-12T21:23:41.591Z,96908.31
2023-04-12T21:26:08.227Z,96892.16
2023-04-12T21:28:34.669Z,96905.19
2023-04-12T21:31:01.117Z,96893.34
2023-04-12T21:33:27.542Z,96903.66
2023-04-12T21:35:55.214Z,96900.25
2023-04-12T21:38:23.059Z,96918.25
2023-04-12T21:40:49.689Z,96906.25
2023-04-12T21:43:16.557Z,96919.03
2023-04-12T21:45:43.154Z,96924.94
2023-04-12T21:48:09.892Z,96919.69
2023-04-12T21:50:37.676Z,96925.53
2023-04-12T21:53:04.377Z,96936.63
2023-04-12T21:55:30.850Z,96943.44
2023-04-12T21:57:57.307Z,96943.25
2023-04-12T22:00:24.913Z,96950.88
2023-04-12T22:02:51.547Z,96955.00
2023-04-12T22:05:18.193Z,96964.34
2023-04-12T22:07:45.182Z,96959.22
2023-04-12T22:10:12.136Z,96961.66
2023-04-12T22:12:39.399Z,96961.66
2023-04-12T22:15:06.258Z,96959.91
2023-04-12T22:17:33.310Z,96965.97
2023-04-12T22:19:59.901Z,96969.41
2023-04-12T22:22:29.807Z,96970.16
2023-04-12T22:24:56.570Z,96964.97
2023-04-12T22:27:26.331Z,96972.53
2023-04-12T22:29:53.487Z,96974.16
2023-04-12T22:32:19.968Z,96977.59
2023-04-12T22:34:48.335Z,96984.28
2023-04-12T22:37:16.666Z,96986.00
2023-04-12T22:39:43.171Z,96998.75
2023-04-12T22:42:09.593Z,97005.34
2023-04-12T22:44:38.358Z,97035.78
2023-04-12T22:47:07.263Z,97037.78
2023-04-12T22:49:44.522Z,97037.91
2023-04-12T22:52:10.968Z,97041.63
2023-04-12T22:54:37.436Z,97054.84
2023-04-12T22:57:04.343Z,97066.88
2023-04-12T22:59:30.813Z,97070.47
2023-04-12T23:01:57.311Z,97054.59
2023-04-12T23:04:23.797Z,97054.41
2023-04-12T23:06:55.197Z,97047.03
2023-04-12T23:09:21.679Z,97039.69
2023-04-12T23:11:48.386Z,97033.34
2023-04-12T23:14:17.779Z,97050.50
2023-04-12T23:16:46.125Z,97069.25
2023-04-12T23:19:14.668Z,97061.53
2023-04-12T23:21:41.793Z,97066.41
2023-04-12T23:24:08.757Z,97062.22
2023-04-12T23:26:36.330Z,97055.84
2023-04-12T23:29:04.309Z,97065.06
2023-04-12T23:31:33.736Z,97064.50
2023-04-12T23:34:06.122Z,97065.44
2023-04-12T23:36:33.541Z,97072.16
2023-04-12T23:39:00.540Z,97077.22
2023-04-12T23:41:27.762Z,97078.97
2023-04-12T23:43:54.278Z,97080.72
2023-04-12T23:46:21.610Z,97086.59
2023-04-12T23:48:49.313Z,97095.25
2023-04-12T23:51:16.676Z,97096.03
2023-04-12T23:53:43.194Z,97091.72
2023-04-12T23:56:09.986Z,97076.06
2023-04-12T23:58:36.680Z,97088.03
